»·PEaware :: N261MG KCOS-KEGE

N261MG :: KCOS-KEGE

FLIGHT INFORMATION

Flight Status: Arrived
Operator: Privately registered:
United States
More flights under this callsign
Pilot: Marty O. (15602)
Aircraft: ECLIPSE 500
(EA50)
More flights by this aircraft type
Origin: KCOS City Of Colorado Springs Mun
United States
Destination: KEGE Eagle Co Regl
United States
More flights between these airports :: More routes between these airports
Route: COS6 BRK FQF RLG
File this flight plan on PilotEdge
Remarks:
Altitude:
(Current/Filed)
18,000ft
Speed:
(Current/Filed)
340kts
Departed: 25-Oct-20 09:28 PM
Arrived: 25-Oct-20 10:08 PM
Distance/Time
Traveled:
114nm/0:40
Distance/Time
To Go:
Arrived

Flight Plot

Page will automatically refresh every two minutes.

Flight plan parsing failed; only flown route is shown


Map Options




Map Legend


Flown Route
Filed Route
Departure Airport
Arrival Airport
Navaid (VOR, NDB)
Fix

Horizontal Profiles

Position Reports

Time Latitude Longitude Heading Altitude Ground
Speed
25-Oct-20 21:01 38.808171 -104.720448 359 6190ft 0kts
25-Oct-20 21:02 38.808171 -104.720448 359 6190ft 0kts
25-Oct-20 21:03 38.808171 -104.720448 359 6190ft 0kts
25-Oct-20 21:04 38.808171 -104.720448 359 6190ft 0kts
25-Oct-20 21:05 38.808171 -104.720448 359 6190ft 0kts
25-Oct-20 21:06 38.808171 -104.720448 359 6190ft 0kts
25-Oct-20 21:07 38.808171 -104.720448 359 6190ft 0kts
25-Oct-20 21:08 38.808171 -104.720448 359 6190ft 0kts
25-Oct-20 21:09 38.808171 -104.720448 359 6190ft 0kts
25-Oct-20 21:10 38.808171 -104.720448 359 6190ft 0kts
25-Oct-20 21:11 38.808171 -104.720448 359 6190ft 0kts
25-Oct-20 21:12 38.808171 -104.720448 359 6190ft 0kts
25-Oct-20 21:13 38.808171 -104.720448 359 6190ft 0kts
25-Oct-20 21:14 38.808171 -104.720448 359 6190ft 0kts
25-Oct-20 21:15 38.808171 -104.720448 359 6190ft 0kts
25-Oct-20 21:16 38.808171 -104.720448 359 6190ft 0kts
25-Oct-20 21:17 38.808290 -104.720131 147 6190ft 1kts
25-Oct-20 21:18 38.807453 -104.719825 171 6190ft 5kts
25-Oct-20 21:19 38.807123 -104.719798 180 6190ft 5kts
25-Oct-20 21:20 38.806215 -104.718553 92 6190ft 2kts
25-Oct-20 21:21 38.805905 -104.717411 154 6190ft 4kts
25-Oct-20 21:22 38.801921 -104.717324 180 6190ft 17kts
25-Oct-20 21:23 38.796981 -104.717331 179 6190ft 6kts
25-Oct-20 21:24 38.794152 -104.717227 147 6190ft 4kts
25-Oct-20 21:25 38.793937 -104.716582 91 6190ft 0kts
25-Oct-20 21:26 38.795739 -104.715917 0 6190ft 34kts
25-Oct-20 21:27 38.830927 -104.716377 359 7165ft 169kts
25-Oct-20 21:28 38.883349 -104.712478 0 9990ft 196kts
25-Oct-20 21:29 38.928387 -104.657398 46 12520ft 238kts
25-Oct-20 21:30 38.986604 -104.632619 352 15214ft 223kts
25-Oct-20 21:31 39.059974 -104.631704 355 15970ft 299kts
25-Oct-20 21:32 39.148637 -104.630127 355 15966ft 328kts
25-Oct-20 21:33 39.239801 -104.628550 355 15977ft 329kts
25-Oct-20 21:34 39.329700 -104.626841 354 17754ft 294kts
25-Oct-20 21:35 39.419021 -104.625579 354 18038ft 336kts
25-Oct-20 21:36 39.517041 -104.623900 354 18040ft 340kts
25-Oct-20 21:37 39.614608 -104.632046 322 18047ft 321kts
25-Oct-20 21:38 39.647280 -104.734198 283 18052ft 308kts
25-Oct-20 21:39 39.669987 -104.840575 284 18043ft 308kts
25-Oct-20 21:40 39.692809 -104.946837 283 18045ft 306kts
25-Oct-20 21:41 39.715903 -105.054698 283 18057ft 303kts
25-Oct-20 21:42 39.738740 -105.162044 282 18064ft 305kts
25-Oct-20 21:43 39.761435 -105.269196 282 18088ft 306kts
25-Oct-20 21:44 39.784592 -105.379099 282 18095ft 307kts
25-Oct-20 21:45 39.807923 -105.490340 282 17979ft 308kts
25-Oct-20 21:46 39.831279 -105.602258 282 17814ft 310kts
25-Oct-20 21:47 39.854175 -105.712578 282 17766ft 305kts
25-Oct-20 21:48 39.876779 -105.822082 282 17764ft 304kts
25-Oct-20 21:49 39.898824 -105.929405 282 17503ft 303kts
25-Oct-20 21:50 39.920741 -106.036674 282 16794ft 301kts
25-Oct-20 21:51 39.940961 -106.136062 282 16077ft 274kts
25-Oct-20 21:52 39.960502 -106.232691 282 15286ft 273kts
25-Oct-20 21:53 39.979814 -106.328587 282 14472ft 272kts
25-Oct-20 21:54 39.995278 -106.424964 256 13980ft 266kts
25-Oct-20 21:55 39.939785 -106.467130 208 13909ft 222kts
25-Oct-20 21:56 39.878074 -106.494875 205 13790ft 226kts
25-Oct-20 21:57 39.816335 -106.521017 204 13782ft 248kts
25-Oct-20 21:58 39.747890 -106.549709 204 13337ft 250kts
25-Oct-20 21:59 39.686299 -106.587425 250 12881ft 234kts
25-Oct-20 22:00 39.678907 -106.663793 260 11970ft 184kts
25-Oct-20 22:01 39.669873 -106.726793 258 10255ft 162kts
25-Oct-20 22:02 39.656201 -106.773218 255 8533ft 131kts
25-Oct-20 22:03 39.653405 -106.809156 271 8173ft 92kts
25-Oct-20 22:04 39.649884 -106.843133 265 7305ft 95kts
25-Oct-20 22:05 39.646478 -106.877100 267 7019ft 95kts
25-Oct-20 22:06 39.643559 -106.908131 264 6548ft 62kts
25-Oct-20 22:07 39.642970 -106.914169 261 6548ft 10kts
25-Oct-20 22:08 39.641606 -106.915868 174 6548ft 7kts
25-Oct-20 22:09 39.641211 -106.915697 145 6548ft 9kts
25-Oct-20 22:10 39.641365 -106.911721 85 6548ft 15kts
25-Oct-20 22:11 39.640999 -106.910870 146 6548ft 0kts

Navigation Log

Ident Type
Flight plan parsing failed, navigation log unavailable